Hyalite Weather Station

This weather station provides temperature, wind speed, gust or max wind speed, and wind direction at 9982ft near the summit of Flanders Mountain. This data can be used with temperature and precipitation data from the Shower Falls SNOTEL site. If the data has not been updated recently you can view it directly on datagarrison.com

Elevation
9982ft
Jump to table bottom
Date Time Temperature
deg F
RH, % Wind Speed Wind Gust Wind Direction
03/03/21 13:00 28.2 31 10 19 SW - 247
03/03/21 12:00 26.5 32 10 21 SW - 244
03/03/21 11:00 24.6 41 9 17 SW - 239
03/03/21 10:00 22.5 48 10 18 SW - 239
03/03/21 09:00 21.5 51 15 26 W - 253
03/03/21 08:00 21.7 53 20 33 W - 251
03/03/21 07:00 19.9 55 20 29 SW - 246
03/03/21 06:00 20.3 52 20 28 W - 250
03/03/21 05:00 20.4 50 21 32 W - 250
03/03/21 04:00 20.1 50 21 32 W - 248
03/03/21 03:00 20.2 50 22 31 W - 248
03/03/21 02:00 20.4 55 20 28 W - 248
03/03/21 01:00 20.7 59 24 32 SW - 247
03/03/21 00:00 21.0 58 24 32 W - 250
03/02/21 23:00 21.6 56 20 31 SW - 247
03/02/21 22:00 21.0 56 17 27 SW - 247
03/02/21 21:00 21.1 56 18 31 SW - 246
03/02/21 20:00 21.1 56 17 29 SW - 243
03/02/21 19:00 21.8 55 21 39 SW - 243
03/02/21 18:00 23.1 54 24 35 SW - 244
03/02/21 17:00 23.8 53 24 35 SW - 246
03/02/21 16:00 23.8 54 24 34 SW - 246
03/02/21 15:00 25.8 54 18 31 SW - 240
03/02/21 14:00 25.1 57 20 37 SW - 244
03/02/21 13:00 23.1 64 25 37 SW - 243
03/02/21 12:00 22.4 68 23 39 SW - 247
03/02/21 11:00 20.4 71 24 34 SW - 244
03/02/21 10:00 19.0 73 22 32 W - 253
03/02/21 09:00 18.4 73 21 30 W - 254
03/02/21 08:00 19.3 72 21 37 W - 260
03/02/21 07:00 19.1 71 23 37 W - 251
03/02/21 06:00 18.8 69 24 38 W - 251
03/02/21 05:00 19.2 68 30 43 W - 257
03/02/21 04:00 19.6 66 29 41 W - 253
03/02/21 03:00 20.3 57 27 41 W - 253
03/02/21 02:00 20.9 53 26 38 W - 253
03/02/21 01:00 22.2 51 26 37 W - 250
03/02/21 00:00 24.1 47 31 43 W - 256
03/01/21 23:00 23.9 51 29 42 W - 253
03/01/21 22:00 25.1 47 34 46 SW - 247
03/01/21 21:00 27.2 44 34 48 SW - 247
03/01/21 20:00 28.9 41 35 51 W - 248
03/01/21 19:00 30.1 39 30 48 SW - 243
03/01/21 18:00 30.0 40 24 45 SW - 243
03/01/21 17:00 28.8 48 20 33 SW - 243
03/01/21 16:00 30.2 43 17 29 SW - 240
03/01/21 15:00 31.2 40 19 30 SW - 240
03/01/21 14:00 32.1 34 14 25 SW - 233
03/01/21 13:00 30.2 39 12 20 SW - 236
03/01/21 12:00 28.5 46 10 20 SW - 246